Time;durP1;ratioP1;P1;durP2;ratioP2;P2;SDS_P1;SDS_P2;PMS_P1;PMS_P2;Temp;Humidity;BMP_temperature;BMP_pressure;BME280_temperature;BME280_humidity;BME280_pressure;Samples;Min_cycle;Max_cycle;Signal;HPM_P1;HPM_P2
2022/12/25 00:00:11;;;;;;;66.38;17.83;;;5.70;99.90;;;;;;5056613;28;20040;-88
2022/12/25 00:02:38;;;;;;;64.75;15.80;;;5.70;99.90;;;;;;5023940;28;21055;-87
2022/12/25 00:05:04;;;;;;;59.40;15.73;;;6.60;99.90;;;;;;5039293;28;20157;-86
2022/12/25 00:07:30;;;;;;;62.78;16.98;;;5.80;99.90;;;;;;5052249;28;20411;-86
2022/12/25 00:09:56;;;;;;;63.47;15.77;;;6.00;99.90;;;;;;5037460;28;20069;-86
2022/12/25 00:12:22;;;;;;;66.45;15.25;;;5.70;99.90;;;;;;5071390;28;20384;-86
2022/12/25 00:14:48;;;;;;;51.38;15.63;;;6.40;99.90;;;;;;5038354;28;20047;-89
2022/12/25 00:17:14;;;;;;;47.80;15.18;;;5.70;99.90;;;;;;5038936;28;20123;-87
2022/12/25 00:19:39;;;;;;;69.70;16.30;;;4.60;99.90;;;;;;5055842;28;20059;-88
2022/12/25 00:22:05;;;;;;;54.88;15.60;;;5.80;99.90;;;;;;5038008;28;20036;-89
2022/12/25 00:24:31;;;;;;;55.28;17.33;;;5.70;99.90;;;;;;5057066;28;20036;-88
2022/12/25 00:26:56;;;;;;;57.75;15.73;;;6.50;99.90;;;;;;5053048;28;20047;-87
2022/12/25 00:29:22;;;;;;;70.68;15.57;;;5.70;99.90;;;;;;5055679;28;20430;-87
2022/12/25 00:31:48;;;;;;;75.13;16.02;;;5.70;99.90;;;;;;5056769;28;20450;-87
2022/12/25 00:34:14;;;;;;;65.38;16.75;;;5.70;99.90;;;;;;5039012;28;20093;-88
2022/12/25 00:36:40;;;;;;;70.43;16.90;;;6.10;99.90;;;;;;5055860;28;20403;-87
2022/12/25 00:39:06;;;;;;;65.03;15.65;;;5.70;99.90;;;;;;5038018;28;20040;-87
2022/12/25 00:44:16;;;;;;;65.55;15.57;;;7.10;99.90;;;;;;5069636;28;20127;-87
2022/12/25 00:46:42;;;;;;;65.45;15.43;;;7.20;99.90;;;;;;5041455;28;20539;-88
2022/12/25 00:49:09;;;;;;;58.85;14.82;;;6.80;99.90;;;;;;5061394;28;20036;-88
2022/12/25 00:51:35;;;;;;;49.72;15.57;;;5.60;99.90;;;;;;5056585;28;20043;-87
2022/12/25 00:54:01;;;;;;;61.28;15.70;;;5.60;99.90;;;;;;5038192;28;20039;-89
2022/12/25 00:56:27;;;;;;;64.97;15.43;;;5.80;99.90;;;;;;5067239;28;20094;-88
2022/12/25 00:58:53;;;;;;;58.95;14.82;;;7.00;99.90;;;;;;5053754;28;20381;-88
2022/12/25 01:01:19;;;;;;;52.67;13.40;;;6.30;99.90;;;;;;5057186;28;20040;-87
2022/12/25 01:03:45;;;;;;;57.70;14.07;;;5.60;99.90;;;;;;5039251;28;20404;-88
2022/12/25 01:06:11;;;;;;;44.60;12.98;;;5.60;99.90;;;;;;5038682;28;20479;-87
2022/12/25 01:10:21;;;;;;;56.72;15.35;;;6.10;99.90;;;;;;5052064;28;20032;-87
2022/12/25 01:11:25;;;;;;;42.40;12.93;;;6.90;99.90;;;;;;5053778;28;20048;-87
2022/12/25 01:13:51;;;;;;;57.60;14.57;;;5.70;99.90;;;;;;5035898;28;20050;-87
2022/12/25 01:16:17;;;;;;;61.58;15.88;;;5.70;99.90;;;;;;5048296;28;20036;-87
2022/12/25 01:18:43;;;;;;;54.55;15.82;;;6.70;99.90;;;;;;5041103;28;20564;-86
2022/12/25 01:21:10;;;;;;;64.03;15.90;;;5.70;99.90;;;;;;5052510;28;20126;-86
2022/12/25 01:23:37;;;;;;;58.97;15.18;;;7.20;99.90;;;;;;5053515;28;20059;-86
2022/12/25 01:26:04;;;;;;;66.35;14.80;;;5.70;99.90;;;;;;5053731;28;20044;-87
2022/12/25 01:28:30;;;;;;;57.35;15.30;;;5.80;99.90;;;;;;5051690;28;20670;-88
2022/12/25 01:30:55;;;;;;;50.60;15.65;;;5.80;99.90;;;;;;5052998;28;20561;-85
2022/12/25 01:33:21;;;;;;;62.80;15.73;;;6.40;99.90;;;;;;5050603;28;20040;-84
2022/12/25 01:35:47;;;;;;;64.07;16.70;;;6.20;99.90;;;;;;5068052;28;20040;-83
2022/12/25 01:38:12;;;;;;;64.82;15.80;;;5.90;99.90;;;;;;5069019;28;20032;-83
2022/12/25 01:40:38;;;;;;;71.63;16.52;;;5.90;99.90;;;;;;5040478;28;20131;-83
2022/12/25 01:43:25;;;;;;;56.90;16.15;;;5.90;99.90;;;;;;5072655;28;20048;-82
2022/12/25 01:45:51;;;;;;;63.13;17.10;;;5.90;99.90;;;;;;5071885;28;20388;-83
2022/12/25 01:48:22;;;;;;;61.30;16.55;;;6.00;99.90;;;;;;5040391;28;20044;-83
2022/12/25 01:50:56;;;;;;;60.95;15.45;;;6.20;99.90;;;;;;5073709;28;20063;-83
2022/12/25 01:53:24;;;;;;;61.47;16.08;;;6.00;99.90;;;;;;5053211;28;20047;-82
2022/12/25 01:55:55;;;;;;;51.33;15.85;;;6.10;99.90;;;;;;5074348;28;20150;-82
2022/12/25 01:58:21;;;;;;;58.70;16.75;;;6.10;99.90;;;;;;5072666;28;20480;-82
2022/12/25 02:00:46;;;;;;;72.95;16.63;;;6.40;99.90;;;;;;5074186;28;20046;-83
2022/12/25 02:03:13;;;;;;;63.35;14.95;;;6.20;99.90;;;;;;5055254;28;20051;-82
2022/12/25 02:05:39;;;;;;;52.53;15.68;;;6.20;99.90;;;;;;5056003;28;20036;-83
2022/12/25 02:08:10;;;;;;;59.22;15.20;;;6.20;99.90;;;;;;5040322;28;20495;-83
2022/12/25 02:10:37;;;;;;;56.00;15.68;;;6.90;99.90;;;;;;5073050;28;20437;-83
2022/12/25 02:13:05;;;;;;;55.95;15.68;;;6.20;99.90;;;;;;5023476;28;20122;-83
2022/12/25 02:16:02;;;;;;;50.78;15.27;;;6.80;99.90;;;;;;5050465;28;20040;-83
2022/12/25 02:18:36;;;;;;;70.20;16.83;;;6.40;99.90;;;;;;5067061;28;20112;-83
2022/12/25 02:21:22;;;;;;;52.90;14.75;;;6.50;99.90;;;;;;5056131;28;20042;-83
2022/12/25 02:23:48;;;;;;;67.40;16.50;;;6.60;99.90;;;;;;5070818;28;20080;-83
2022/12/25 02:26:22;;;;;;;57.83;15.85;;;6.90;99.90;;;;;;5071645;28;20140;-83
2022/12/25 02:28:55;;;;;;;65.00;17.15;;;6.70;99.90;;;;;;5051970;28;20063;-83
2022/12/25 02:31:35;;;;;;;53.42;15.85;;;6.80;99.90;;;;;;5070793;28;20137;-83
2022/12/25 02:34:14;;;;;;;57.45;15.70;;;6.90;99.90;;;;;;5054517;28;20124;-83
2022/12/25 02:36:48;;;;;;;44.53;12.32;;;6.90;99.90;;;;;;5052532;28;20036;-83
2022/12/25 02:42:11;;;;;;;43.70;13.35;;;7.40;99.90;;;;;;5070783;28;20083;-83
2022/12/25 03:07:12;;;;;;;49.33;14.70;;;7.20;99.90;;;;;;5068384;28;20650;-84
2022/12/25 03:12:50;;;;;;;57.10;13.75;;;7.20;99.90;;;;;;5069240;28;20052;-83
2022/12/25 03:18:18;;;;;;;43.83;14.23;;;7.10;99.90;;;;;;5014582;28;20359;-83
2022/12/25 03:29:01;;;;;;;47.47;12.88;;;7.00;99.90;;;;;;5049663;28;20036;-83
2022/12/25 03:31:36;;;;;;;43.72;13.48;;;7.40;99.90;;;;;;5048604;28;20546;-84
2022/12/25 04:38:11;;;;;;;48.40;15.07;;;7.00;99.90;;;;;;5068886;28;20046;-83
2022/12/25 04:40:37;;;;;;;47.63;12.85;;;7.00;99.90;;;;;;5035271;28;20032;-83
2022/12/25 04:43:03;;;;;;;43.83;15.50;;;7.00;99.90;;;;;;5036138;28;20032;-83
2022/12/25 04:45:28;;;;;;;52.85;16.80;;;7.10;99.90;;;;;;5052132;28;20468;-83
2022/12/25 04:47:54;;;;;;;52.95;16.58;;;7.10;99.90;;;;;;5050909;28;20491;-84
2022/12/25 04:50:20;;;;;;;61.03;17.70;;;7.20;99.90;;;;;;5018606;28;20061;-83
2022/12/25 04:52:45;;;;;;;56.55;17.17;;;7.20;99.90;;;;;;5018891;28;20530;-83
2022/12/25 04:55:11;;;;;;;42.30;16.52;;;7.30;99.90;;;;;;5043862;28;20083;-83
2022/12/25 04:57:37;;;;;;;37.75;14.20;;;7.50;99.90;;;;;;5051884;28;20040;-83
2022/12/25 05:00:05;;;;;;;60.55;19.23;;;7.40;99.90;;;;;;5051742;28;20047;-83
2022/12/25 05:02:30;;;;;;;30.52;12.95;;;7.50;99.90;;;;;;5051973;28;20036;-83
2022/12/25 05:04:56;;;;;;;40.78;17.52;;;7.50;99.90;;;;;;5050537;28;20121;-83
2022/12/25 05:07:22;;;;;;;51.97;17.08;;;7.70;99.90;;;;;;5036608;28;20111;-83
2022/12/25 05:09:47;;;;;;;62.67;20.83;;;8.20;99.90;;;;;;5035931;28;20051;-83
2022/12/25 05:12:13;;;;;;;59.58;21.45;;;7.80;99.90;;;;;;5034612;28;20059;-83
2022/12/25 05:14:40;;;;;;;45.70;18.42;;;7.80;99.90;;;;;;5040870;28;20028;-83
2022/12/25 05:17:06;;;;;;;62.42;21.13;;;7.90;99.90;;;;;;5057809;28;20115;-83
2022/12/25 05:19:32;;;;;;;44.58;18.98;;;7.90;99.90;;;;;;5056082;28;20097;-83
2022/12/25 05:21:58;;;;;;;60.45;21.50;;;8.00;99.90;;;;;;5053098;28;20040;-83
2022/12/25 05:24:27;;;;;;;61.80;19.90;;;8.00;99.90;;;;;;5038459;28;20090;-83
2022/12/25 05:26:53;;;;;;;41.22;17.35;;;8.00;99.90;;;;;;5071974;28;20087;-83
2022/12/25 05:29:19;;;;;;;41.58;16.88;;;8.10;99.90;;;;;;5071502;28;21062;-85
2022/12/25 05:31:45;;;;;;;47.80;20.52;;;8.10;99.90;;;;;;5017454;28;20048;-83
2022/12/25 05:34:10;;;;;;;49.13;17.30;;;8.10;99.90;;;;;;5049794;28;20040;-83
2022/12/25 05:36:38;;;;;;;44.58;16.80;;;8.10;99.90;;;;;;5036005;28;20143;-83
2022/12/25 05:39:03;;;;;;;51.05;19.67;;;8.10;99.90;;;;;;5053281;28;20040;-83
2022/12/25 05:41:29;;;;;;;41.47;15.88;;;8.20;99.90;;;;;;5052319;28;20098;-83
2022/12/25 05:43:55;;;;;;;35.42;14.65;;;8.20;99.90;;;;;;5055126;28;20048;-83
2022/12/25 05:46:20;;;;;;;38.75;16.73;;;8.20;99.90;;;;;;5057279;28;20389;-83
2022/12/25 05:48:46;;;;;;;42.78;16.83;;;8.40;99.90;;;;;;5072537;28;20041;-83
2022/12/25 05:51:13;;;;;;;48.22;17.73;;;8.20;99.90;;;;;;5055480;28;20040;-83
2022/12/25 05:53:40;;;;;;;41.63;18.88;;;8.30;99.90;;;;;;5054358;28;20045;-83
2022/12/25 05:56:07;;;;;;;45.53;18.35;;;8.30;99.90;;;;;;5050675;28;20401;-83
2022/12/25 05:58:35;;;;;;;27.73;13.25;;;8.30;99.90;;;;;;5036706;28;20067;-83
2022/12/25 06:01:01;;;;;;;43.63;17.88;;;8.40;99.90;;;;;;5053276;28;20052;-83
2022/12/25 06:03:27;;;;;;;40.05;17.45;;;8.40;99.90;;;;;;5053115;28;20408;-83
2022/12/25 06:05:53;;;;;;;43.80;17.85;;;8.40;99.90;;;;;;5050746;28;20040;-83
2022/12/25 06:08:18;;;;;;;31.58;16.52;;;8.40;99.90;;;;;;5035917;28;20041;-83
2022/12/25 06:10:45;;;;;;;29.80;13.52;;;8.40;99.90;;;;;;5033326;28;20037;-83
2022/12/25 06:13:12;;;;;;;42.55;19.40;;;8.50;99.90;;;;;;5052242;28;20511;-83
2022/12/25 06:15:39;;;;;;;29.58;14.50;;;8.40;99.90;;;;;;5048958;28;20045;-80
2022/12/25 06:18:05;;;;;;;24.85;13.35;;;8.40;99.90;;;;;;5037703;28;20041;-83
2022/12/25 06:20:30;;;;;;;40.22;16.67;;;8.40;99.90;;;;;;5049809;28;20518;-83
2022/12/25 06:22:56;;;;;;;39.80;16.08;;;8.40;99.90;;;;;;5034937;28;20049;-83
2022/12/25 06:25:22;;;;;;;36.35;16.20;;;8.40;99.90;;;;;;5066304;28;20106;-83
2022/12/25 06:27:47;;;;;;;37.38;15.15;;;8.40;99.90;;;;;;5035783;28;20045;-83
2022/12/25 06:30:13;;;;;;;34.10;13.90;;;8.40;99.90;;;;;;5031229;28;20055;-82
2022/12/25 06:32:39;;;;;;;38.88;15.75;;;8.40;99.90;;;;;;5032501;28;20041;-82
2022/12/25 06:35:05;;;;;;;33.70;15.00;;;8.40;99.90;;;;;;5023536;28;20044;-83
2022/12/25 06:37:31;;;;;;;28.50;13.98;;;8.40;99.90;;;;;;5068485;28;20040;-83
2022/12/25 06:39:56;;;;;;;27.60;14.65;;;8.40;99.90;;;;;;5033049;28;20048;-83
2022/12/25 06:42:22;;;;;;;35.50;14.45;;;8.30;99.90;;;;;;5030982;28;20054;-83
2022/12/25 06:44:49;;;;;;;31.15;14.05;;;8.30;99.90;;;;;;5068588;28;20123;-83
2022/12/25 06:47:15;;;;;;;28.95;12.90;;;8.30;99.90;;;;;;5016415;28;20051;-84
2022/12/25 06:49:41;;;;;;;25.30;14.02;;;8.20;99.90;;;;;;5050430;28;20036;-83
2022/12/25 06:52:07;;;;;;;46.17;14.60;;;8.20;99.90;;;;;;5052602;28;20219;-81
2022/12/25 06:54:33;;;;;;;26.75;13.38;;;8.20;99.90;;;;;;5059243;28;20035;-81
2022/12/25 06:56:58;;;;;;;34.55;14.00;;;8.10;99.90;;;;;;5066193;28;20170;-83
2022/12/25 06:59:24;;;;;;;25.52;13.23;;;8.10;99.90;;;;;;5018395;28;20039;-83
2022/12/25 07:01:52;;;;;;;23.40;10.98;;;8.10;99.90;;;;;;5052077;28;20514;-82
2022/12/25 07:04:39;;;;;;;30.55;12.95;;;8.10;99.90;;;;;;5050259;28;20051;-82
2022/12/25 07:07:07;;;;;;;29.30;14.32;;;8.10;99.90;;;;;;5066532;28;20123;-82
2022/12/25 07:09:33;;;;;;;28.13;13.18;;;8.10;99.90;;;;;;5050256;28;20048;-82
2022/12/25 07:12:07;;;;;;;31.42;12.63;;;8.10;99.90;;;;;;5066642;28;20043;-82
2022/12/25 07:14:32;;;;;;;21.85;10.43;;;8.00;99.90;;;;;;5067442;28;20376;-82
2022/12/25 07:16:58;;;;;;;23.83;12.38;;;8.10;99.90;;;;;;5033862;28;20040;-83
2022/12/25 07:19:24;;;;;;;23.15;11.30;;;8.10;99.90;;;;;;5050321;28;20107;-83
2022/12/25 07:21:49;;;;;;;33.15;12.63;;;8.10;99.90;;;;;;5065896;28;20044;-82
2022/12/25 07:24:19;;;;;;;25.50;12.70;;;8.50;99.90;;;;;;5049627;28;20170;-83
2022/12/25 07:26:45;;;;;;;28.38;11.50;;;8.10;99.90;;;;;;5057021;28;20144;-83
2022/12/25 07:29:11;;;;;;;29.75;12.40;;;8.10;99.90;;;;;;5024985;28;20115;-82
2022/12/25 07:31:36;;;;;;;26.15;12.25;;;8.10;99.90;;;;;;5023393;28;20048;-83
2022/12/25 07:34:02;;;;;;;26.45;12.15;;;8.10;99.90;;;;;;5028659;28;21282;-83
2022/12/25 07:36:29;;;;;;;22.80;11.07;;;8.10;99.90;;;;;;5013467;28;20041;-83
2022/12/25 07:38:55;;;;;;;27.35;11.98;;;8.10;99.90;;;;;;5011556;28;20044;-83
2022/12/25 07:41:22;;;;;;;22.00;10.73;;;8.10;99.90;;;;;;5021562;28;20040;-83
2022/12/25 07:43:52;;;;;;;30.45;11.82;;;8.20;99.90;;;;;;5024818;28;20040;-83
2022/12/25 07:46:18;;;;;;;26.65;11.60;;;8.20;99.90;;;;;;5044507;28;20093;-85
2022/12/25 07:48:43;;;;;;;21.73;11.15;;;8.20;99.90;;;;;;4999720;28;20134;-85
2022/12/25 07:51:11;;;;;;;18.15;9.93;;;8.20;99.90;;;;;;5014038;28;20123;-85
2022/12/25 07:53:38;;;;;;;18.42;8.98;;;8.20;99.90;;;;;;5024703;28;20041;-85
2022/12/25 07:56:16;;;;;;;24.58;10.57;;;8.20;99.90;;;;;;5041143;28;20036;-84
2022/12/25 07:58:42;;;;;;;19.10;9.43;;;8.20;99.90;;;;;;5025045;28;20041;-84
2022/12/25 08:01:16;;;;;;;27.52;9.68;;;8.20;99.90;;;;;;5027681;28;20040;-83
2022/12/25 08:03:42;;;;;;;19.55;10.98;;;8.20;99.90;;;;;;5026508;28;20132;-83
2022/12/25 08:06:10;;;;;;;29.20;10.90;;;8.20;99.90;;;;;;5007460;28;20511;-84
2022/12/25 08:08:37;;;;;;;22.25;10.35;;;8.20;99.90;;;;;;5014723;28;20050;-84
2022/12/25 08:11:03;;;;;;;23.05;11.07;;;8.10;99.90;;;;;;5022259;28;20041;-83
2022/12/25 08:13:33;;;;;;;22.85;9.63;;;8.20;99.90;;;;;;5008229;28;20044;-82
2022/12/25 08:16:00;;;;;;;24.35;10.95;;;8.20;99.90;;;;;;5027689;28;20094;-84
2022/12/25 08:18:28;;;;;;;23.60;9.40;;;8.20;99.90;;;;;;5024502;28;20084;-84
2022/12/25 08:20:53;;;;;;;18.63;9.18;;;8.20;99.90;;;;;;5021475;28;20040;-84
2022/12/25 08:23:19;;;;;;;20.27;9.93;;;8.20;99.90;;;;;;5023965;28;20044;-84
2022/12/25 08:25:45;;;;;;;26.35;9.90;;;8.20;99.90;;;;;;5037080;28;20586;-83
2022/12/25 08:28:10;;;;;;;23.42;10.13;;;8.20;99.90;;;;;;5035967;28;20097;-84
2022/12/25 08:30:40;;;;;;;23.92;10.35;;;8.20;99.90;;;;;;5054785;28;20439;-83
2022/12/25 08:33:06;;;;;;;25.42;10.18;;;8.20;99.90;;;;;;5069756;28;20097;-84
2022/12/25 08:35:35;;;;;;;20.75;8.45;;;8.20;99.90;;;;;;5051706;28;20039;-85
2022/12/25 08:38:01;;;;;;;23.65;10.18;;;8.20;99.90;;;;;;5052699;28;20047;-88
2022/12/25 08:40:27;;;;;;;22.48;8.88;;;8.30;99.90;;;;;;5070574;28;20097;-86
2022/12/25 08:42:55;;;;;;;17.63;9.25;;;8.20;99.90;;;;;;5051507;28;20068;-86
2022/12/25 08:45:21;;;;;;;20.00;9.88;;;8.20;99.90;;;;;;5053172;28;20123;-86
2022/12/25 08:47:52;;;;;;;19.23;9.43;;;8.20;99.90;;;;;;5035902;28;20118;-87
2022/12/25 08:50:17;;;;;;;16.60;8.52;;;8.20;99.90;;;;;;5051583;28;20040;-87
2022/12/25 08:52:43;;;;;;;14.63;8.65;;;8.50;99.90;;;;;;5051885;28;20086;-88
2022/12/25 08:55:09;;;;;;;21.73;8.73;;;8.20;99.90;;;;;;5021414;28;20516;-90
2022/12/25 08:57:35;;;;;;;16.05;7.80;;;;;;;;;;5054616;28;20043;-90
2022/12/25 09:00:01;;;;;;;21.58;9.38;;;8.30;99.90;;;;;;5054418;28;20442;-90
2022/12/25 09:02:27;;;;;;;20.92;9.30;;;8.30;99.90;;;;;;5051961;28;20050;-90
2022/12/25 09:04:52;;;;;;;17.83;9.13;;;8.50;99.90;;;;;;5037328;28;20043;-90
2022/12/25 09:07:18;;;;;;;18.27;9.98;;;8.30;99.90;;;;;;5051811;28;20384;-90
2022/12/25 09:09:44;;;;;;;23.05;9.68;;;9.00;99.90;;;;;;5052476;28;20048;-86
2022/12/25 09:12:10;;;;;;;18.88;9.93;;;8.30;99.90;;;;;;5053642;28;20064;-91
2022/12/25 09:14:36;;;;;;;23.17;9.65;;;8.30;99.90;;;;;;5052767;28;20040;-91
2022/12/25 09:17:01;;;;;;;19.27;9.77;;;8.20;99.90;;;;;;5063075;28;20074;-89
2022/12/25 09:19:27;;;;;;;21.63;10.57;;;7.00;99.90;;;;;;5054497;28;20123;-90
2022/12/25 09:21:53;;;;;;;24.17;10.23;;;8.30;99.90;;;;;;5052416;28;20048;-90
2022/12/25 09:24:19;;;;;;;20.25;11.55;;;8.30;99.90;;;;;;5053537;28;20036;-90
2022/12/25 09:26:45;;;;;;;25.80;10.95;;;8.30;99.90;;;;;;5052885;28;20137;-90
2022/12/25 09:29:11;;;;;;;21.42;9.27;;;8.40;99.90;;;;;;5052384;28;20047;-91
2022/12/25 09:31:37;;;;;;;21.42;9.25;;;8.40;99.90;;;;;;5052497;28;20043;-89
2022/12/25 09:34:02;;;;;;;25.40;9.77;;;8.50;99.90;;;;;;5020430;28;20044;-89
2022/12/25 09:36:28;;;;;;;19.60;8.48;;;8.50;99.90;;;;;;5034961;28;20126;-90
2022/12/25 09:38:54;;;;;;;19.73;8.63;;;8.50;99.90;;;;;;5020495;28;20431;-89
2022/12/25 09:42:03;;;;;;;20.02;9.35;;;8.50;99.90;;;;;;5034243;28;20435;-89
2022/12/25 09:44:43;;;;;;;17.20;8.98;;;8.50;99.90;;;;;;5051913;28;20032;-88
2022/12/25 09:47:25;;;;;;;19.77;9.27;;;8.60;99.90;;;;;;5051790;28;20032;-88
2022/12/25 09:50:29;;;;;;;20.20;9.35;;;8.50;99.90;;;;;;5069705;28;20047;-89
2022/12/25 09:53:07;;;;;;;23.73;9.23;;;8.60;99.90;;;;;;5043474;28;20798;-88
2022/12/25 09:55:39;;;;;;;17.88;8.30;;;8.60;99.90;;;;;;5053319;28;20391;-86
2022/12/25 09:58:12;;;;;;;16.45;9.05;;;8.50;99.90;;;;;;5050303;28;20035;-88
2022/12/25 10:00:41;;;;;;;23.48;8.48;;;8.60;99.90;;;;;;5056675;28;20043;-86
2022/12/25 10:03:29;;;;;;;16.77;8.82;;;8.60;99.90;;;;;;5053084;28;20071;-86
2022/12/25 10:06:08;;;;;;;15.95;7.93;;;8.60;99.90;;;;;;5070956;28;20044;-88
2022/12/25 10:08:49;;;;;;;19.33;8.23;;;8.60;99.90;;;;;;5045460;28;20032;-89
2022/12/25 10:11:39;;;;;;;22.88;7.82;;;8.60;99.90;;;;;;5047268;28;20028;-90
2022/12/25 10:14:42;;;;;;;16.95;7.72;;;8.60;99.90;;;;;;5055668;28;20059;-84
2022/12/25 10:17:20;;;;;;;17.90;7.82;;;8.60;99.90;;;;;;5069115;28;20105;-84
2022/12/25 10:20:04;;;;;;;15.65;8.85;;;8.60;99.90;;;;;;5069903;28;20039;-83
2022/12/25 10:22:43;;;;;;;20.90;8.50;;;8.60;99.90;;;;;;5055692;28;20047;-83
2022/12/25 10:25:22;;;;;;;20.33;8.30;;;8.60;99.90;;;;;;5069657;28;20052;-83
2022/12/25 10:28:13;;;;;;;18.73;9.52;;;8.60;99.90;;;;;;5055007;28;20040;-82
2022/12/25 10:30:42;;;;;;;16.35;8.77;;;8.60;99.90;;;;;;5070169;28;20078;-82
2022/12/25 10:33:11;;;;;;;17.35;8.68;;;8.50;99.90;;;;;;5072122;28;20403;-82
2022/12/25 10:35:38;;;;;;;14.38;8.13;;;8.60;99.90;;;;;;5056269;28;20522;-82
2022/12/25 10:38:16;;;;;;;13.48;7.53;;;8.60;99.90;;;;;;5073138;28;20115;-82
2022/12/25 10:41:03;;;;;;;16.42;8.07;;;8.60;99.90;;;;;;5051762;28;20040;-82
2022/12/25 10:43:48;;;;;;;17.27;8.32;;;8.70;99.90;;;;;;5072069;28;20036;-83
2022/12/25 10:46:15;;;;;;;14.60;7.75;;;8.70;99.90;;;;;;5051493;28;20042;-84
2022/12/25 10:48:53;;;;;;;16.65;7.32;;;8.80;99.90;;;;;;5033639;28;20036;-84
2022/12/25 10:51:38;;;;;;;15.15;7.63;;;8.70;99.90;;;;;;5069647;28;20070;-85
2022/12/25 10:54:26;;;;;;;18.58;8.40;;;8.80;99.90;;;;;;5067607;28;20047;-85
2022/12/25 10:57:15;;;;;;;14.57;8.07;;;8.80;99.90;;;;;;5080204;28;20127;-88
2022/12/25 10:59:49;;;;;;;15.32;7.50;;;9.20;99.90;;;;;;5055987;28;20077;-90
2022/12/25 11:02:37;;;;;;;17.25;7.05;;;9.40;99.90;;;;;;5055203;28;20047;-85
2022/12/25 11:05:05;;;;;;;12.02;6.88;;;8.90;99.90;;;;;;5054395;28;20043;-89
2022/12/25 11:07:45;;;;;;;15.65;7.82;;;8.90;99.90;;;;;;5056819;28;20063;-90
2022/12/25 11:10:26;;;;;;;15.95;7.22;;;9.40;99.90;;;;;;5054219;28;20108;-86
2022/12/25 11:12:55;;;;;;;16.58;7.47;;;8.90;99.90;;;;;;5088786;28;20129;-90
2022/12/25 11:15:45;;;;;;;12.48;7.20;;;8.90;99.90;;;;;;5059844;28;20047;-90
2022/12/25 11:18:23;;;;;;;15.35;6.82;;;8.90;99.90;;;;;;5057734;28;20044;-89
2022/12/25 11:20:50;;;;;;;17.42;6.60;;;8.90;99.90;;;;;;5058139;28;20036;-87
2022/12/25 11:23:19;;;;;;;15.50;6.28;;;8.90;99.90;;;;;;5057405;28;20054;-90
2022/12/25 11:25:59;;;;;;;11.30;6.32;;;8.90;99.90;;;;;;5070662;28;20088;-86
2022/12/25 11:28:28;;;;;;;15.93;6.90;;;8.70;99.90;;;;;;5053999;28;20098;-87
2022/12/25 11:30:59;;;;;;;10.57;5.78;;;8.90;99.90;;;;;;5070131;28;20222;-88
2022/12/25 11:33:34;;;;;;;13.77;6.57;;;8.90;99.90;;;;;;5053166;28;20492;-87
2022/12/25 11:36:03;;;;;;;12.50;7.05;;;9.00;99.90;;;;;;5053704;28;20083;-90
2022/12/25 11:38:29;;;;;;;12.70;6.40;;;8.90;99.90;;;;;;5052071;28;20047;-89
2022/12/25 11:41:00;;;;;;;13.82;6.45;;;9.00;99.90;;;;;;5053141;28;20041;-89
2022/12/25 11:43:40;;;;;;;13.13;6.88;;;9.00;99.90;;;;;;5053613;28;20578;-89
2022/12/25 11:46:37;;;;;;;15.40;6.28;;;9.10;99.90;;;;;;5051658;28;20476;-92
2022/12/25 11:49:12;;;;;;;18.83;6.45;;;9.10;99.90;;;;;;5069804;28;20040;-91
2022/12/25 11:51:48;;;;;;;14.00;7.30;;;9.10;99.90;;;;;;5051861;28;20101;-91
2022/12/25 11:54:21;;;;;;;11.05;6.88;;;9.10;99.90;;;;;;5050500;28;20127;-91
2022/12/25 11:56:48;;;;;;;14.38;6.53;;;9.30;99.90;;;;;;5052262;28;20048;-91
2022/12/25 11:59:29;;;;;;;13.20;6.65;;;9.10;99.90;;;;;;5051645;28;20072;-90
2022/12/25 12:01:59;;;;;;;15.35;7.43;;;9.10;99.90;;;;;;5050477;28;20045;-88
2022/12/25 12:04:35;;;;;;;16.50;7.35;;;9.10;99.90;;;;;;5052522;28;20480;-91
2022/12/25 12:07:22;;;;;;;13.65;7.43;;;9.10;99.90;;;;;;5056190;28;20495;-87
2022/12/25 12:09:55;;;;;;;11.60;5.95;;;9.10;99.90;;;;;;5055875;28;20032;-88
2022/12/25 12:12:53;;;;;;;12.82;6.65;;;9.10;99.90;;;;;;5051970;28;20089;-89
2022/12/25 12:15:42;;;;;;;11.43;6.80;;;9.10;99.90;;;;;;5027962;28;20555;-90
2022/12/25 12:18:26;;;;;;;12.43;6.57;;;9.10;99.90;;;;;;5068938;28;20044;-86
2022/12/25 12:21:07;;;;;;;15.00;6.75;;;10.10;99.90;;;;;;5053169;28;20048;-91
2022/12/25 12:23:49;;;;;;;13.70;7.55;;;9.10;99.90;;;;;;5049065;28;20036;-86
2022/12/25 12:26:21;;;;;;;13.50;6.88;;;9.10;99.90;;;;;;5049464;28;20049;-85
2022/12/25 12:28:49;;;;;;;12.50;7.30;;;9.50;99.90;;;;;;5058626;28;20488;-89
2022/12/25 12:31:15;;;;;;;14.98;6.97;;;9.10;99.90;;;;;;5051024;28;20040;-88
2022/12/25 12:33:49;;;;;;;13.57;7.22;;;9.10;99.90;;;;;;5036425;28;20125;-86
2022/12/25 12:36:15;;;;;;;18.58;7.68;;;9.10;99.90;;;;;;5049615;28;20032;-87
2022/12/25 12:38:42;;;;;;;14.15;6.88;;;9.10;99.90;;;;;;5031491;28;20079;-88
2022/12/25 12:41:13;;;;;;;14.30;7.18;;;9.10;99.90;;;;;;5049622;28;20143;-85
2022/12/25 12:43:43;;;;;;;15.82;7.97;;;9.10;99.90;;;;;;5049003;28;20051;-87
2022/12/25 12:46:16;;;;;;;13.93;7.30;;;9.10;99.90;;;;;;5049568;28;20048;-88
2022/12/25 12:49:05;;;;;;;15.77;7.45;;;9.10;99.90;;;;;;5048986;28;20033;-90
2022/12/25 12:51:36;;;;;;;13.32;6.55;;;9.10;99.90;;;;;;5052658;28;20074;-90
2022/12/25 12:54:23;;;;;;;18.02;8.40;;;9.10;99.90;;;;;;5051691;28;20095;-89
2022/12/25 12:56:58;;;;;;;13.30;7.45;;;9.10;99.90;;;;;;5052083;28;20484;-89
2022/12/25 12:59:30;;;;;;;13.25;7.30;;;9.10;99.90;;;;;;5048265;28;20393;-88
2022/12/25 13:02:43;;;;;;;14.25;8.07;;;9.10;99.90;;;;;;5046692;28;20105;-89
2022/12/25 13:05:27;;;;;;;19.58;9.25;;;9.10;99.90;;;;;;5049498;28;20032;-90
2022/12/25 13:08:30;;;;;;;17.80;8.63;;;9.10;99.90;;;;;;5051240;28;20037;-91
2022/12/25 13:11:30;;;;;;;15.55;8.98;;;8.80;99.90;;;;;;5052460;28;20446;-87
2022/12/25 13:13:59;;;;;;;11.77;8.40;;;9.10;99.90;;;;;;5010202;28;20459;-87
2022/12/25 13:16:37;;;;;;;15.07;9.68;;;9.00;99.90;;;;;;5052108;28;20028;-85
2022/12/25 13:19:20;;;;;;;18.70;9.52;;;9.00;99.90;;;;;;5054390;28;20037;-88
2022/12/25 13:21:57;;;;;;;21.10;9.85;;;9.00;99.90;;;;;;5053109;28;20039;-87
2022/12/25 13:24:36;;;;;;;17.48;10.20;;;9.00;99.90;;;;;;5043509;28;20128;-87
2022/12/25 13:27:23;;;;;;;19.17;10.85;;;9.00;99.90;;;;;;5049658;28;20048;-86
2022/12/25 13:29:49;;;;;;;18.33;9.10;;;8.60;99.90;;;;;;5051556;28;20037;-88
2022/12/25 13:32:32;;;;;;;17.33;9.50;;;10.40;99.90;;;;;;5049898;28;20032;-88
2022/12/25 13:34:59;;;;;;;18.45;9.13;;;9.00;99.90;;;;;;5069397;28;20044;-85
2022/12/25 13:37:27;;;;;;;18.80;10.35;;;9.00;99.90;;;;;;5070758;28;20090;-85
2022/12/25 13:40:06;;;;;;;15.50;9.07;;;9.00;99.90;;;;;;5054330;28;20041;-84
2022/12/25 13:42:38;;;;;;;18.15;9.00;;;9.00;99.90;;;;;;5047292;28;20041;-87
2022/12/25 13:45:17;;;;;;;16.17;10.05;;;9.00;99.90;;;;;;5055296;28;20125;-87
2022/12/25 13:47:44;;;;;;;17.15;11.18;;;9.00;99.90;;;;;;5059281;28;20041;-85
2022/12/25 13:50:31;;;;;;;19.77;11.20;;;9.00;99.90;;;;;;5023172;28;20510;-85
2022/12/25 13:53:09;;;;;;;;;;;8.90;99.90;;;;;;5053431;28;20572;-87
2022/12/25 13:55:36;;;;;;;19.92;11.38;;;8.90;99.90;;;;;;5070448;28;19954;-87
2022/12/25 13:58:11;;;;;;;17.23;10.93;;;8.90;99.90;;;;;;5054234;28;20388;-85
2022/12/25 14:00:49;;;;;;;19.33;10.77;;;8.90;99.90;;;;;;5055265;28;20443;-86
2022/12/25 14:03:37;;;;;;;24.05;13.43;;;8.90;99.90;;;;;;5054637;28;20087;-85
2022/12/25 14:06:25;;;;;;;19.88;12.02;;;8.90;99.90;;;;;;5048543;28;20081;-86
2022/12/25 14:08:54;;;;;;;27.15;13.07;;;8.90;99.90;;;;;;5052528;28;20546;-86
2022/12/25 14:11:22;;;;;;;25.70;14.38;;;8.90;99.90;;;;;;5053101;28;20508;-88
2022/12/25 14:13:52;;;;;;;23.00;13.93;;;8.90;99.90;;;;;;5037115;28;20052;-88
2022/12/25 14:16:19;;;;;;;23.05;13.23;;;8.90;99.90;;;;;;5055184;28;20044;-87
2022/12/25 14:18:53;;;;;;;19.08;13.15;;;8.90;99.90;;;;;;5037810;28;20051;-88
2022/12/25 14:21:31;;;;;;;20.50;13.77;;;8.90;99.90;;;;;;5053929;28;20395;-87
2022/12/25 14:23:58;;;;;;;27.63;14.68;;;8.90;99.90;;;;;;5053337;28;20036;-86
2022/12/25 14:26:29;;;;;;;23.67;14.63;;;8.90;99.90;;;;;;5051880;28;20323;-86
2022/12/25 14:29:16;;;;;;;23.35;14.27;;;8.90;99.90;;;;;;5047274;28;20369;-88
2022/12/25 14:31:42;;;;;;;23.95;13.88;;;8.90;99.90;;;;;;5054166;28;20037;-88
2022/12/25 14:34:17;;;;;;;22.75;14.45;;;8.90;99.90;;;;;;5055058;28;20117;-88
2022/12/25 14:36:43;;;;;;;24.25;13.35;;;8.90;99.90;;;;;;5071190;28;20079;-88
2022/12/25 14:39:33;;;;;;;26.63;15.35;;;8.90;99.90;;;;;;5053802;28;20064;-85
2022/12/25 14:42:09;;;;;;;24.02;14.50;;;8.90;99.90;;;;;;5053632;28;20040;-88
2022/12/25 14:44:39;;;;;;;16.65;12.10;;;8.90;99.90;;;;;;5053621;28;20172;-91
2022/12/25 14:47:19;;;;;;;26.52;14.57;;;8.90;99.90;;;;;;5053339;28;20123;-83